Flight Track Log - Related Links

Times and Time Zones

All times are in EDT time to prevent confusion due to time zone crossing. See the AAY817 flight status page for this flight to view local times or setup timezone preferences in your user account.

Time Position Orientation Groundspeed Altitude Reporting Facility
EDT Latitude Longitude Course Direction KTS MPH feet Rate Location/Type
Fri 03:24:15 PM 38.4028 -82.6061 180° South 179 206 3,000  Level Indianapolis Center
Fri 03:25:17 PM 38.4281 -82.5336 66° East 246 283 4,400 2,129 Climbing Indianapolis Center
Fri 03:26:19 PM 38.4183 -82.4286 97° East 276 318 7,400 2,613 Climbing Indianapolis Center
Fri 03:27:21 PM 38.4064 -82.3192 98° East 300 345 9,800 1,984 Climbing Indianapolis Center
Fri 03:28:23 PM 38.3922 -82.1989 99° East 335 386 11,500 2,274 Climbing Indianapolis Center
Fri 03:29:00 PM 38.2681 -81.7667 180° South  Level FlightAware Approximate
Fri 03:29:25 PM 38.3108 -82.1519 156° South 335 386 14,500  Level Indianapolis Center
Fri 03:30:27 PM 38.2192 -82.1569 182° South 333 383 16,800 1,887 Climbing Indianapolis Center
Fri 03:31:29 PM 38.1231 -82.1631 183° South 341 392 18,400 1,548 Climbing Indianapolis Center
Fri 03:32:31 PM 38.0069 -82.1706 183° South 360 414 20,000 1,536 Climbing Indianapolis Center
Fri 03:33:34 PM 37.9017 -82.1767 183° South 372 428 21,600 1,392 Climbing Indianapolis Center
Fri 03:34:36 PM 37.7933 -82.1839 183° South 382 440 22,900 1,306 Climbing Indianapolis Center
Fri 03:35:38 PM 37.6822 -82.1900 182° South 392 451 24,300 1,452 Climbing Indianapolis Center
Fri 03:36:40 PM 37.5486 -82.1972 182° South 403 464 25,900 1,403 Climbing Indianapolis Center
Fri 03:37:42 PM 37.4325 -82.2044 183° South 411 473 27,200 1,258 Climbing Indianapolis Center
Fri 03:38:44 PM 37.3161 -82.2106 182° South 413 475 28,500 1,113 Climbing Indianapolis Center
Fri 03:39:46 PM 37.1964 -82.2167 182° South 421 484 29,500 968 Climbing Indianapolis Center
Fri 03:40:48 PM 37.0753 -82.2231 182° South 426 490 30,500 1,065 Climbing Indianapolis Center
Fri 03:41:50 PM 36.9533 -82.2294 182° South 431 496 31,700 1,355 Climbing Indianapolis Center
Fri 03:42:52 PM 36.8131 -82.2367 182° South 431 496 33,300 1,200 Climbing Indianapolis Center
Fri 03:43:55 PM 36.6925 -82.2436 183° South 431 496 34,200 768 Climbing Indianapolis Center
Fri 03:44:57 PM 36.5714 -82.2497 182° South 431 496 34,900 774 Climbing Indianapolis Center
Fri 03:45:28 PM 36.5103 -82.2539 183° South 442 509 35,400 791 Climbing Atlanta Center
Fri 03:46:28 PM 36.3769 -82.2594 182° South 442 509 36,100 700 Climbing Atlanta Center
Fri 03:47:28 PM 36.2561 -82.2672 183° South 442 509 36,800 650 Climbing Atlanta Center
Fri 03:48:28 PM 36.1353 -82.2750 183° South 442 509 37,400 600 Climbing Atlanta Center
Fri 03:49:28 PM 36.0122 -82.2803 182° South 442 509 38,000 300 Climbing Atlanta Center
Fri 03:50:28 PM 35.8914 -82.2856 182° South 442 509 38,000  Level Atlanta Center
Fri 03:51:28 PM 35.7706 -82.2958 184° South 437 503 38,000  Level Atlanta Center
Fri 03:52:28 PM 35.6497 -82.3033 183° South 437 503 38,000  Level Atlanta Center
Fri 03:53:28 PM 35.5267 -82.3086 182° South 437 503 38,000  Level Atlanta Center
Fri 03:54:28 PM 35.4036 -82.3164 183° South 443 510 38,000  Level Atlanta Center
Fri 03:57:33 PM 34.6913 -82.3489 182° South 435 501 38,000  Level FlightAware ADS-B (KDZJ)
Fri 03:58:06 PM 34.6233 -82.3523 182° South 434 499 38,000  Level FlightAware ADS-B (KDZJ)
Fri 03:58:36 PM 34.5624 -82.3554 182° South 434 499 38,000  Level FlightAware ADS-B (KDZJ)
Fri 04:01:41 PM 34.5127 -82.3579 182° South 442 509 38,000  Level FlightAware ADS-B
Fri 04:05:34 PM 34.0350 -82.3821 182° South 442 509 38,000  Level FlightAware ADS-B
Fri 04:06:08 PM 33.9635 -82.3857 182° South 442 509 38,000  Level FlightAware ADS-B
Fri 04:07:28 PM 33.8208 -82.3886 182° South 443 510 38,000  Level Atlanta Center
Fri 04:08:28 PM 33.6747 -82.3964 183° South 457 526 38,000  Level Atlanta Center
Fri 04:09:28 PM 33.5517 -82.4061 184° South 462 532 38,000  Level Atlanta Center
Fri 04:10:28 PM 33.4308 -82.4133 183° South 452 520 38,000  Level Atlanta Center
Fri 04:11:28 PM 33.3036 -82.4208 183° South 452 520 38,000  Level Atlanta Center
Fri 04:12:28 PM 33.1806 -82.4256 182° South 452 520 38,000  Level Atlanta Center
Fri 04:13:28 PM 33.0531 -82.4303 182° South 457 526 38,000  Level Atlanta Center
Fri 04:14:28 PM 32.9300 -82.4375 183° South 457 526 38,000  Level Atlanta Center
Fri 04:15:28 PM 32.8008 -82.4450 183° South 457 526 38,000  Level Atlanta Center
Fri 04:16:28 PM 32.6778 -82.4494 182° South 457 526 38,000  Level Atlanta Center
Fri 04:18:33 PM 32.4267 -82.4594 182° South 479 551 38,000  Level Jacksonville Center
Fri 04:19:33 PM 32.3014 -82.4675 183° South 465 535 38,000  Level Jacksonville Center
Fri 04:20:33 PM 32.1764 -82.4728 182° South 458 527 38,000  Level Jacksonville Center
Fri 04:21:33 PM 32.0511 -82.4808 183° South 458 527 38,000  Level Jacksonville Center
Fri 04:22:33 PM 31.9217 -82.4839 181° South 458 527 38,000  Level Jacksonville Center
Fri 04:23:33 PM 31.7858 -82.4917 183° South 458 527 38,000  Level Jacksonville Center
Fri 04:24:33 PM 31.6586 -82.4972 182° South 458 527 38,000  Level Jacksonville Center
Fri 04:25:33 PM 31.5333 -82.4881 176° South 458 527 38,000  Level Jacksonville Center
Fri 04:26:34 PM 31.4058 -82.4786 176° South 458 527 38,000  Level Jacksonville Center
Fri 04:27:33 PM 31.2911 -82.4769 179° South 458 527 38,000  Level Jacksonville Center
Fri 04:33:04 PM 30.5704 -82.4238 177° South 467 537 38,000  Level FlightAware ADS-B
Fri 04:33:58 PM 30.4479 -82.4158 177° South 469 540 38,000  Level FlightAware ADS-B
Fri 04:34:50 PM 30.3353 -82.4082 177° South 471 542 38,000  Level FlightAware ADS-B
Fri 04:35:50 PM 30.2053 -82.3996 177° South 473 544 38,000 -960 Level FlightAware ADS-B
Fri 04:36:30 PM 30.1166 -82.3937 177° South 475 547 36,400 -2,400 Descending FlightAware ADS-B
Fri 04:37:30 PM 29.9851 -82.3848 177° South 468 539 34,000 -2,300 Descending FlightAware ADS-B
Fri 04:38:30 PM 29.8555 -82.3764 177° South 457 526 31,800 -2,220 Descending FlightAware ADS-B
Fri 04:39:10 PM 29.7732 -82.3710 177° South 449 517 30,300 -2,278 Descending FlightAware ADS-B
Fri 04:39:49 PM 29.6910 -82.3655 177° South 440 506 28,800 -2,050 Descending FlightAware ADS-B
Fri 04:41:10 PM 29.5288 -82.3531 174° South 422 486 26,200 -1,388 Descending FlightAware ADS-B
Fri 04:41:50 PM 29.4539 -82.3430 174° South 418 481 26,000 -380 Descending FlightAware ADS-B
Fri 04:42:29 PM 29.3772 -82.3335 174° South 417 480 25,700 -1,800 Descending FlightAware ADS-B
Fri 04:43:30 PM 29.2629 -82.3200 174° South 408 470 23,000 -3,619 Descending FlightAware ADS-B
Fri 04:45:38 PM 29.0290 -82.2919 174° South 388 447 14,300 -3,458 Descending FlightAware ADS-B
Fri 04:46:27 PM 28.9409 -82.2814 174° South 343 395 12,800 -486 Descending FlightAware ADS-B
Fri 04:48:31 PM 28.7858 -82.2632 174° South 283 326 12,900 -178 Climbing FlightAware ADS-B
Fri 04:50:57 PM 28.5827 -82.2747 191° South 282 325 12,000 -503 Descending FlightAware ADS-B
Fri 04:51:42 PM 28.5276 -82.2872 191° South 291 335 11,300 -1,268 Descending FlightAware ADS-B
Fri 04:52:08 PM 28.4900 -82.3027 238° Southwest 301 346 10,500 -1,108 Descending FlightAware ADS-B
Fri 04:52:47 PM 28.4666 -82.3492 248° West 301 346 10,100 -692 Descending FlightAware ADS-B
Fri 04:53:52 PM 28.4361 -82.4369 248° West 302 348 9,300 -945 Descending Miami Center
Fri 04:54:54 PM 28.4317 -82.5300 267° West 302 348 8,100 -1,210 Descending Miami Center
Fri 04:55:56 PM 28.4125 -82.6197 256° West 300 345 6,800 -1,210 Descending Miami Center
Fri 04:56:58 PM 28.3636 -82.7000 235° Southwest 292 336 5,600 -968 Descending Miami Center
Fri 04:58:00 PM 28.2917 -82.6989 179° South 267 307 4,800 -672 Descending Miami Center
Fri 04:59:03 PM 28.2189 -82.6936 176° South 265 305 4,200 -689 Descending Miami Center
Fri 05:00:02 PM 28.1333 -82.6833 174° South 262 302 3,400 -706 Descending Tampa TRACON
Fri 05:01:02 PM 28.0833 -82.6667 164° South 222 255 2,800 -750 Descending Tampa TRACON
Fri 05:02:02 PM 28.0167 -82.6667 180° South 177 204 1,900 -842 Descending Tampa TRACON
Fri 05:02:56 PM 27.9833 -82.6667 180° South 135 155 1,200 -737 Descending Tampa TRACON
Fri 05:03:56 PM 27.9500 -82.6833 204° Southwest 133 153 500 -700 Descending Tampa TRACON

Login

Don't have an account? Register now (free) for customized features, flight alerts, and more!